sensor_id;sensor_type;location;lat;lon;timestamp;temperature;humidity
40996;DHT22;26723;57.478;12.066;2023-01-15T00:01:50;6.70;99.90
40996;DHT22;26723;57.478;12.066;2023-01-15T00:04:59;6.70;99.90
40996;DHT22;26723;57.478;12.066;2023-01-15T00:08:10;6.60;99.90
40996;DHT22;26723;57.478;12.066;2023-01-15T00:11:19;6.60;99.90
40996;DHT22;26723;57.478;12.066;2023-01-15T00:14:28;6.60;99.90
40996;DHT22;26723;57.478;12.066;2023-01-15T00:17:37;6.40;99.90
40996;DHT22;26723;57.478;12.066;2023-01-15T00:20:46;6.30;99.90
40996;DHT22;26723;57.478;12.066;2023-01-15T00:23:56;6.30;99.90
40996;DHT22;26723;57.478;12.066;2023-01-15T00:27:22;6.30;99.90
40996;DHT22;26723;57.478;12.066;2023-01-15T00:30:47;6.40;99.90
40996;DHT22;26723;57.478;12.066;2023-01-15T00:33:55;6.50;99.90
40996;DHT22;26723;57.478;12.066;2023-01-15T00:37:04;6.50;99.90
40996;DHT22;26723;57.478;12.066;2023-01-15T00:40:15;6.50;99.90
40996;DHT22;26723;57.478;12.066;2023-01-15T00:43:24;6.50;99.90
40996;DHT22;26723;57.478;12.066;2023-01-15T00:46:33;6.50;99.90
40996;DHT22;26723;57.478;12.066;2023-01-15T00:49:41;6.50;99.90
40996;DHT22;26723;57.478;12.066;2023-01-15T00:52:50;6.50;99.90
40996;DHT22;26723;57.478;12.066;2023-01-15T00:56:01;6.50;99.90
40996;DHT22;26723;57.478;12.066;2023-01-15T00:59:09;6.50;99.90
40996;DHT22;26723;57.478;12.066;2023-01-15T01:02:18;6.50;99.90
40996;DHT22;26723;57.478;12.066;2023-01-15T01:05:26;6.50;99.90
40996;DHT22;26723;57.478;12.066;2023-01-15T01:08:35;6.40;99.90
40996;DHT22;26723;57.478;12.066;2023-01-15T01:11:45;6.40;99.90
40996;DHT22;26723;57.478;12.066;2023-01-15T01:14:53;6.40;99.90
40996;DHT22;26723;57.478;12.066;2023-01-15T01:18:04;6.40;99.90
40996;DHT22;26723;57.478;12.066;2023-01-15T01:21:13;6.40;99.90
40996;DHT22;26723;57.478;12.066;2023-01-15T01:24:23;6.30;99.90
40996;DHT22;26723;57.478;12.066;2023-01-15T01:27:33;6.30;99.90
40996;DHT22;26723;57.478;12.066;2023-01-15T01:30:41;6.20;99.90
40996;DHT22;26723;57.478;12.066;2023-01-15T01:33:52;6.10;99.90
40996;DHT22;26723;57.478;12.066;2023-01-15T01:37:00;6.10;99.90
40996;DHT22;26723;57.478;12.066;2023-01-15T01:40:10;6.00;99.90
40996;DHT22;26723;57.478;12.066;2023-01-15T01:43:22;5.90;99.90
40996;DHT22;26723;57.478;12.066;2023-01-15T01:46:33;5.90;99.90
40996;DHT22;26723;57.478;12.066;2023-01-15T01:49:42;5.90;99.90
40996;DHT22;26723;57.478;12.066;2023-01-15T01:52:55;5.90;99.90
40996;DHT22;26723;57.478;12.066;2023-01-15T01:56:06;5.90;99.90
40996;DHT22;26723;57.478;12.066;2023-01-15T01:59:19;5.80;99.90
40996;DHT22;26723;57.478;12.066;2023-01-15T02:02:28;5.80;99.90
40996;DHT22;26723;57.478;12.066;2023-01-15T02:05:39;5.80;99.90
40996;DHT22;26723;57.478;12.066;2023-01-15T02:08:49;5.70;99.90
40996;DHT22;26723;57.478;12.066;2023-01-15T02:12:02;5.70;99.90
40996;DHT22;26723;57.478;12.066;2023-01-15T02:15:17;5.70;99.90
40996;DHT22;26723;57.478;12.066;2023-01-15T02:18:30;5.70;99.90
40996;DHT22;26723;57.478;12.066;2023-01-15T02:21:47;5.60;99.90
40996;DHT22;26723;57.478;12.066;2023-01-15T02:25:06;5.60;99.90
40996;DHT22;26723;57.478;12.066;2023-01-15T02:28:24;5.60;99.90
40996;DHT22;26723;57.478;12.066;2023-01-15T02:31:38;5.50;99.90
40996;DHT22;26723;57.478;12.066;2023-01-15T02:34:52;5.40;99.90
40996;DHT22;26723;57.478;12.066;2023-01-15T02:38:04;5.50;99.90
40996;DHT22;26723;57.478;12.066;2023-01-15T02:41:15;5.50;99.90
40996;DHT22;26723;57.478;12.066;2023-01-15T02:44:30;5.40;99.90
40996;DHT22;26723;57.478;12.066;2023-01-15T02:47:42;5.50;99.90
40996;DHT22;26723;57.478;12.066;2023-01-15T02:50:53;5.50;99.90
40996;DHT22;26723;57.478;12.066;2023-01-15T02:54:05;5.50;99.90
40996;DHT22;26723;57.478;12.066;2023-01-15T02:57:15;5.50;99.90
40996;DHT22;26723;57.478;12.066;2023-01-15T03:00:36;5.60;99.90
40996;DHT22;26723;57.478;12.066;2023-01-15T03:03:52;5.60;99.90
40996;DHT22;26723;57.478;12.066;2023-01-15T03:07:07;5.50;99.90
40996;DHT22;26723;57.478;12.066;2023-01-15T03:10:18;5.60;99.90
40996;DHT22;26723;57.478;12.066;2023-01-15T03:13:36;5.50;99.90
40996;DHT22;26723;57.478;12.066;2023-01-15T03:16:51;5.60;99.90
40996;DHT22;26723;57.478;12.066;2023-01-15T03:20:05;5.60;99.90
40996;DHT22;26723;57.478;12.066;2023-01-15T03:23:17;5.60;99.90
40996;DHT22;26723;57.478;12.066;2023-01-15T03:26:28;5.60;99.90
40996;DHT22;26723;57.478;12.066;2023-01-15T03:29:39;5.70;99.90
40996;DHT22;26723;57.478;12.066;2023-01-15T03:32:50;5.70;99.90
40996;DHT22;26723;57.478;12.066;2023-01-15T03:36:00;5.70;99.90
40996;DHT22;26723;57.478;12.066;2023-01-15T03:39:28;5.70;99.90
40996;DHT22;26723;57.478;12.066;2023-01-15T03:42:48;5.70;99.90
40996;DHT22;26723;57.478;12.066;2023-01-15T03:46:35;5.70;99.90
40996;DHT22;26723;57.478;12.066;2023-01-15T03:49:55;5.70;99.90
40996;DHT22;26723;57.478;12.066;2023-01-15T03:53:28;5.70;99.90
40996;DHT22;26723;57.478;12.066;2023-01-15T03:56:45;5.70;99.90
40996;DHT22;26723;57.478;12.066;2023-01-15T04:00:08;5.70;99.90
40996;DHT22;26723;57.478;12.066;2023-01-15T04:03:22;5.60;99.90
40996;DHT22;26723;57.478;12.066;2023-01-15T04:06:35;5.60;99.90
40996;DHT22;26723;57.478;12.066;2023-01-15T04:09:45;5.60;99.90
40996;DHT22;26723;57.478;12.066;2023-01-15T04:12:54;5.60;99.90
40996;DHT22;26723;57.478;12.066;2023-01-15T04:16:03;5.60;99.90
40996;DHT22;26723;57.478;12.066;2023-01-15T04:19:11;5.60;99.90
40996;DHT22;26723;57.478;12.066;2023-01-15T04:22:30;5.60;99.90
40996;DHT22;26723;57.478;12.066;2023-01-15T04:25:38;5.60;99.90
40996;DHT22;26723;57.478;12.066;2023-01-15T04:28:47;5.60;99.90
40996;DHT22;26723;57.478;12.066;2023-01-15T04:31:55;5.60;99.90
40996;DHT22;26723;57.478;12.066;2023-01-15T04:35:05;5.60;99.90
40996;DHT22;26723;57.478;12.066;2023-01-15T04:38:14;5.50;99.90
40996;DHT22;26723;57.478;12.066;2023-01-15T04:41:23;5.50;99.90
40996;DHT22;26723;57.478;12.066;2023-01-15T04:44:49;5.50;99.90
40996;DHT22;26723;57.478;12.066;2023-01-15T04:47:58;5.50;99.90
40996;DHT22;26723;57.478;12.066;2023-01-15T04:51:06;5.50;99.90
40996;DHT22;26723;57.478;12.066;2023-01-15T04:54:17;5.50;99.90
40996;DHT22;26723;57.478;12.066;2023-01-15T04:57:26;5.50;99.90
40996;DHT22;26723;57.478;12.066;2023-01-15T05:00:34;5.50;99.90
40996;DHT22;26723;57.478;12.066;2023-01-15T05:03:43;5.60;99.90
40996;DHT22;26723;57.478;12.066;2023-01-15T05:06:51;5.60;99.90
40996;DHT22;26723;57.478;12.066;2023-01-15T05:10:01;5.60;99.90
40996;DHT22;26723;57.478;12.066;2023-01-15T05:13:10;5.70;99.90
40996;DHT22;26723;57.478;12.066;2023-01-15T05:16:20;5.70;99.90
40996;DHT22;26723;57.478;12.066;2023-01-15T05:19:30;5.70;99.90
40996;DHT22;26723;57.478;12.066;2023-01-15T05:22:39;5.70;99.90
40996;DHT22;26723;57.478;12.066;2023-01-15T05:25:48;5.70;99.90
40996;DHT22;26723;57.478;12.066;2023-01-15T05:28:57;5.60;99.90
40996;DHT22;26723;57.478;12.066;2023-01-15T05:32:06;5.60;99.90
40996;DHT22;26723;57.478;12.066;2023-01-15T05:35:15;5.70;99.90
40996;DHT22;26723;57.478;12.066;2023-01-15T05:38:24;5.70;99.90
40996;DHT22;26723;57.478;12.066;2023-01-15T05:41:34;5.70;99.90
40996;DHT22;26723;57.478;12.066;2023-01-15T05:44:57;5.70;99.90
40996;DHT22;26723;57.478;12.066;2023-01-15T05:48:06;5.70;99.90
40996;DHT22;26723;57.478;12.066;2023-01-15T05:51:15;5.70;99.90
40996;DHT22;26723;57.478;12.066;2023-01-15T05:54:25;5.70;99.90
40996;DHT22;26723;57.478;12.066;2023-01-15T05:57:35;5.70;99.90
40996;DHT22;26723;57.478;12.066;2023-01-15T06:00:43;5.80;99.90
40996;DHT22;26723;57.478;12.066;2023-01-15T06:03:52;5.70;99.90
40996;DHT22;26723;57.478;12.066;2023-01-15T06:07:01;5.70;99.90
40996;DHT22;26723;57.478;12.066;2023-01-15T06:10:10;5.80;99.90
40996;DHT22;26723;57.478;12.066;2023-01-15T06:13:20;5.80;99.90
40996;DHT22;26723;57.478;12.066;2023-01-15T06:16:28;5.80;99.90
40996;DHT22;26723;57.478;12.066;2023-01-15T06:19:37;5.70;99.90
40996;DHT22;26723;57.478;12.066;2023-01-15T06:22:48;5.80;99.90
40996;DHT22;26723;57.478;12.066;2023-01-15T06:25:59;5.80;99.90
40996;DHT22;26723;57.478;12.066;2023-01-15T06:29:09;5.80;99.90
40996;DHT22;26723;57.478;12.066;2023-01-15T06:32:19;5.80;99.90
40996;DHT22;26723;57.478;12.066;2023-01-15T06:35:27;5.80;99.90
40996;DHT22;26723;57.478;12.066;2023-01-15T06:38:36;5.80;99.90
40996;DHT22;26723;57.478;12.066;2023-01-15T06:41:44;5.80;99.90
40996;DHT22;26723;57.478;12.066;2023-01-15T06:45:11;5.80;99.90
40996;DHT22;26723;57.478;12.066;2023-01-15T06:48:46;5.80;99.90
40996;DHT22;26723;57.478;12.066;2023-01-15T06:51:54;5.80;99.90
40996;DHT22;26723;57.478;12.066;2023-01-15T06:55:03;5.80;99.90
40996;DHT22;26723;57.478;12.066;2023-01-15T06:58:12;5.80;99.90
40996;DHT22;26723;57.478;12.066;2023-01-15T07:01:21;5.80;99.90
40996;DHT22;26723;57.478;12.066;2023-01-15T07:04:30;5.80;99.90
40996;DHT22;26723;57.478;12.066;2023-01-15T07:07:39;5.80;99.90
40996;DHT22;26723;57.478;12.066;2023-01-15T07:10:47;5.80;99.90
40996;DHT22;26723;57.478;12.066;2023-01-15T07:13:55;5.80;99.90
40996;DHT22;26723;57.478;12.066;2023-01-15T07:17:14;5.80;99.90
40996;DHT22;26723;57.478;12.066;2023-01-15T07:20:22;5.80;99.90
40996;DHT22;26723;57.478;12.066;2023-01-15T07:23:31;5.80;99.90
40996;DHT22;26723;57.478;12.066;2023-01-15T07:26:40;5.80;99.90
40996;DHT22;26723;57.478;12.066;2023-01-15T07:29:49;5.80;99.90
40996;DHT22;26723;57.478;12.066;2023-01-15T07:33:01;5.80;99.90
40996;DHT22;26723;57.478;12.066;2023-01-15T07:36:10;5.80;99.90
40996;DHT22;26723;57.478;12.066;2023-01-15T07:39:18;5.80;99.90
40996;DHT22;26723;57.478;12.066;2023-01-15T07:42:26;5.80;99.90
40996;DHT22;26723;57.478;12.066;2023-01-15T07:45:52;5.90;99.90
40996;DHT22;26723;57.478;12.066;2023-01-15T07:49:20;5.90;99.90
40996;DHT22;26723;57.478;12.066;2023-01-15T07:52:51;5.80;99.90
40996;DHT22;26723;57.478;12.066;2023-01-15T07:56:00;5.80;99.90
40996;DHT22;26723;57.478;12.066;2023-01-15T07:59:08;5.80;99.90
40996;DHT22;26723;57.478;12.066;2023-01-15T08:02:16;5.80;99.90
40996;DHT22;26723;57.478;12.066;2023-01-15T08:05:26;5.80;99.90
40996;DHT22;26723;57.478;12.066;2023-01-15T08:08:35;5.70;99.90
40996;DHT22;26723;57.478;12.066;2023-01-15T08:11:43;5.80;99.90
40996;DHT22;26723;57.478;12.066;2023-01-15T08:15:09;5.80;99.90
40996;DHT22;26723;57.478;12.066;2023-01-15T08:18:21;5.90;99.90
40996;DHT22;26723;57.478;12.066;2023-01-15T08:21:30;5.90;99.90
40996;DHT22;26723;57.478;12.066;2023-01-15T08:24:39;5.90;99.90
40996;DHT22;26723;57.478;12.066;2023-01-15T08:27:47;5.90;99.90
40996;DHT22;26723;57.478;12.066;2023-01-15T08:30:56;5.90;99.90
40996;DHT22;26723;57.478;12.066;2023-01-15T08:34:04;5.90;99.90
40996;DHT22;26723;57.478;12.066;2023-01-15T08:37:14;5.90;99.90
40996;DHT22;26723;57.478;12.066;2023-01-15T08:40:22;6.00;99.90
40996;DHT22;26723;57.478;12.066;2023-01-15T08:43:31;6.10;99.90
40996;DHT22;26723;57.478;12.066;2023-01-15T08:46:40;6.00;99.90
40996;DHT22;26723;57.478;12.066;2023-01-15T08:49:48;6.00;99.90
40996;DHT22;26723;57.478;12.066;2023-01-15T08:52:58;6.00;99.90
40996;DHT22;26723;57.478;12.066;2023-01-15T08:56:11;6.10;99.90
40996;DHT22;26723;57.478;12.066;2023-01-15T08:59:20;6.10;99.90
40996;DHT22;26723;57.478;12.066;2023-01-15T09:02:29;6.10;99.90
40996;DHT22;26723;57.478;12.066;2023-01-15T09:05:39;6.10;99.90
40996;DHT22;26723;57.478;12.066;2023-01-15T09:08:49;6.10;99.90
40996;DHT22;26723;57.478;12.066;2023-01-15T09:11:58;6.10;99.90
40996;DHT22;26723;57.478;12.066;2023-01-15T09:15:10;6.10;99.90
40996;DHT22;26723;57.478;12.066;2023-01-15T09:18:18;6.10;99.90
40996;DHT22;26723;57.478;12.066;2023-01-15T09:21:27;6.10;99.90
40996;DHT22;26723;57.478;12.066;2023-01-15T09:24:36;6.10;99.90
40996;DHT22;26723;57.478;12.066;2023-01-15T09:27:45;6.10;99.90
40996;DHT22;26723;57.478;12.066;2023-01-15T09:30:55;6.10;99.90
40996;DHT22;26723;57.478;12.066;2023-01-15T09:34:04;6.10;99.90
40996;DHT22;26723;57.478;12.066;2023-01-15T09:37:12;6.10;99.90
40996;DHT22;26723;57.478;12.066;2023-01-15T09:40:39;6.10;99.90
40996;DHT22;26723;57.478;12.066;2023-01-15T09:43:58;6.10;99.90
40996;DHT22;26723;57.478;12.066;2023-01-15T09:47:13;6.00;99.90
40996;DHT22;26723;57.478;12.066;2023-01-15T09:50:33;6.10;99.90
40996;DHT22;26723;57.478;12.066;2023-01-15T09:53:58;6.10;99.90
40996;DHT22;26723;57.478;12.066;2023-01-15T09:57:13;6.10;99.90
40996;DHT22;26723;57.478;12.066;2023-01-15T10:00:24;6.20;99.90
40996;DHT22;26723;57.478;12.066;2023-01-15T10:03:38;6.20;99.90
40996;DHT22;26723;57.478;12.066;2023-01-15T10:06:53;6.20;99.90
40996;DHT22;26723;57.478;12.066;2023-01-15T10:10:09;6.30;99.90
40996;DHT22;26723;57.478;12.066;2023-01-15T10:13:28;6.30;99.90
40996;DHT22;26723;57.478;12.066;2023-01-15T10:16:38;6.30;99.90
40996;DHT22;26723;57.478;12.066;2023-01-15T10:19:47;6.30;99.90
40996;DHT22;26723;57.478;12.066;2023-01-15T10:23:08;6.30;99.90
40996;DHT22;26723;57.478;12.066;2023-01-15T10:26:30;6.30;99.90
40996;DHT22;26723;57.478;12.066;2023-01-15T10:29:44;6.30;99.90
40996;DHT22;26723;57.478;12.066;2023-01-15T10:32:55;6.30;99.90
40996;DHT22;26723;57.478;12.066;2023-01-15T10:36:13;6.30;99.90
40996;DHT22;26723;57.478;12.066;2023-01-15T10:39:28;6.30;99.90
40996;DHT22;26723;57.478;12.066;2023-01-15T10:42:46;6.30;99.90
40996;DHT22;26723;57.478;12.066;2023-01-15T10:46:00;6.30;99.90
40996;DHT22;26723;57.478;12.066;2023-01-15T10:49:13;6.30;99.90
40996;DHT22;26723;57.478;12.066;2023-01-15T10:52:25;6.30;99.90
40996;DHT22;26723;57.478;12.066;2023-01-15T10:55:41;6.30;99.90
40996;DHT22;26723;57.478;12.066;2023-01-15T10:58:54;6.30;99.90
40996;DHT22;26723;57.478;12.066;2023-01-15T11:02:19;6.30;99.90
40996;DHT22;26723;57.478;12.066;2023-01-15T11:05:31;6.30;99.90
40996;DHT22;26723;57.478;12.066;2023-01-15T11:08:41;6.30;99.90
40996;DHT22;26723;57.478;12.066;2023-01-15T11:12:20;6.30;99.90
40996;DHT22;26723;57.478;12.066;2023-01-15T11:15:48;6.20;99.90
40996;DHT22;26723;57.478;12.066;2023-01-15T11:19:25;6.30;99.90
40996;DHT22;26723;57.478;12.066;2023-01-15T11:22:50;6.30;99.90
40996;DHT22;26723;57.478;12.066;2023-01-15T11:25:59;6.30;99.90
40996;DHT22;26723;57.478;12.066;2023-01-15T11:29:12;6.30;99.90
40996;DHT22;26723;57.478;12.066;2023-01-15T11:32:28;6.30;99.90
40996;DHT22;26723;57.478;12.066;2023-01-15T11:35:49;6.30;99.90
40996;DHT22;26723;57.478;12.066;2023-01-15T11:38:58;6.30;99.90
40996;DHT22;26723;57.478;12.066;2023-01-15T11:42:14;6.40;99.90
40996;DHT22;26723;57.478;12.066;2023-01-15T11:45:47;6.40;99.90
40996;DHT22;26723;57.478;12.066;2023-01-15T11:49:18;6.20;99.90
40996;DHT22;26723;57.478;12.066;2023-01-15T11:52:47;6.20;99.90
40996;DHT22;26723;57.478;12.066;2023-01-15T11:55:58;6.20;99.90
40996;DHT22;26723;57.478;12.066;2023-01-15T11:59:10;6.30;99.90
40996;DHT22;26723;57.478;12.066;2023-01-15T12:02:29;6.20;99.90
40996;DHT22;26723;57.478;12.066;2023-01-15T12:05:45;6.20;99.90
40996;DHT22;26723;57.478;12.066;2023-01-15T12:09:02;6.20;99.90
40996;DHT22;26723;57.478;12.066;2023-01-15T12:12:22;6.30;99.90
40996;DHT22;26723;57.478;12.066;2023-01-15T12:15:42;6.30;99.90
40996;DHT22;26723;57.478;12.066;2023-01-15T12:19:05;6.30;99.90
40996;DHT22;26723;57.478;12.066;2023-01-15T12:22:26;6.30;99.90
40996;DHT22;26723;57.478;12.066;2023-01-15T12:25:50;6.30;99.90
40996;DHT22;26723;57.478;12.066;2023-01-15T12:29:04;6.30;99.90
40996;DHT22;26723;57.478;12.066;2023-01-15T12:32:17;6.20;99.90
40996;DHT22;26723;57.478;12.066;2023-01-15T12:35:29;6.20;99.90
40996;DHT22;26723;57.478;12.066;2023-01-15T12:38:49;6.20;99.90
40996;DHT22;26723;57.478;12.066;2023-01-15T12:42:02;6.10;99.90
40996;DHT22;26723;57.478;12.066;2023-01-15T12:45:33;6.10;99.90
40996;DHT22;26723;57.478;12.066;2023-01-15T12:48:49;6.00;99.90
40996;DHT22;26723;57.478;12.066;2023-01-15T12:52:03;6.00;99.90
40996;DHT22;26723;57.478;12.066;2023-01-15T12:55:19;5.90;99.90
40996;DHT22;26723;57.478;12.066;2023-01-15T12:58:43;5.90;99.90
40996;DHT22;26723;57.478;12.066;2023-01-15T13:01:58;5.90;99.90
40996;DHT22;26723;57.478;12.066;2023-01-15T13:05:18;5.80;99.90
40996;DHT22;26723;57.478;12.066;2023-01-15T13:08:30;5.90;99.90
40996;DHT22;26723;57.478;12.066;2023-01-15T13:11:40;5.90;99.90
40996;DHT22;26723;57.478;12.066;2023-01-15T13:14:50;5.90;99.90
40996;DHT22;26723;57.478;12.066;2023-01-15T13:18:04;5.90;99.90
40996;DHT22;26723;57.478;12.066;2023-01-15T13:21:16;5.90;99.90
40996;DHT22;26723;57.478;12.066;2023-01-15T13:24:50;5.80;99.90
40996;DHT22;26723;57.478;12.066;2023-01-15T13:28:25;5.70;99.90
40996;DHT22;26723;57.478;12.066;2023-01-15T13:31:49;5.60;99.90
40996;DHT22;26723;57.478;12.066;2023-01-15T13:35:05;5.60;99.90
40996;DHT22;26723;57.478;12.066;2023-01-15T13:38:19;5.70;99.90
40996;DHT22;26723;57.478;12.066;2023-01-15T13:41:31;5.70;99.90
40996;DHT22;26723;57.478;12.066;2023-01-15T13:44:59;5.70;99.90
40996;DHT22;26723;57.478;12.066;2023-01-15T13:48:13;5.60;99.90
40996;DHT22;26723;57.478;12.066;2023-01-15T13:51:26;5.60;99.90
40996;DHT22;26723;57.478;12.066;2023-01-15T13:54:40;5.50;99.90
40996;DHT22;26723;57.478;12.066;2023-01-15T13:57:49;5.50;99.90
40996;DHT22;26723;57.478;12.066;2023-01-15T14:01:07;5.50;99.90
40996;DHT22;26723;57.478;12.066;2023-01-15T14:04:35;5.50;99.90
40996;DHT22;26723;57.478;12.066;2023-01-15T14:07:44;5.50;99.90
40996;DHT22;26723;57.478;12.066;2023-01-15T14:10:53;5.40;99.90
40996;DHT22;26723;57.478;12.066;2023-01-15T14:18:19;5.40;99.90
40996;DHT22;26723;57.478;12.066;2023-01-15T14:21:46;5.50;99.90
40996;DHT22;26723;57.478;12.066;2023-01-15T14:25:28;5.50;99.90
40996;DHT22;26723;57.478;12.066;2023-01-15T14:28:55;5.50;99.90
40996;DHT22;26723;57.478;12.066;2023-01-15T14:32:08;5.50;99.90
40996;DHT22;26723;57.478;12.066;2023-01-15T14:35:22;5.50;99.90
40996;DHT22;26723;57.478;12.066;2023-01-15T14:38:33;5.50;99.90
40996;DHT22;26723;57.478;12.066;2023-01-15T14:41:43;5.40;99.90
40996;DHT22;26723;57.478;12.066;2023-01-15T14:45:07;5.40;99.90
40996;DHT22;26723;57.478;12.066;2023-01-15T14:48:36;5.30;99.90
40996;DHT22;26723;57.478;12.066;2023-01-15T14:51:48;5.20;99.90
40996;DHT22;26723;57.478;12.066;2023-01-15T14:54:59;5.10;99.90
40996;DHT22;26723;57.478;12.066;2023-01-15T14:58:13;4.90;99.90
40996;DHT22;26723;57.478;12.066;2023-01-15T15:01:36;4.90;99.90
40996;DHT22;26723;57.478;12.066;2023-01-15T15:04:47;4.80;99.90
40996;DHT22;26723;57.478;12.066;2023-01-15T15:07:59;4.60;99.90
40996;DHT22;26723;57.478;12.066;2023-01-15T15:11:17;4.50;99.90
40996;DHT22;26723;57.478;12.066;2023-01-15T15:14:43;4.50;99.90
40996;DHT22;26723;57.478;12.066;2023-01-15T15:18:00;4.40;99.90
40996;DHT22;26723;57.478;12.066;2023-01-15T15:21:17;4.40;99.90
40996;DHT22;26723;57.478;12.066;2023-01-15T15:24:30;4.40;99.90
40996;DHT22;26723;57.478;12.066;2023-01-15T15:27:42;4.30;99.90
40996;DHT22;26723;57.478;12.066;2023-01-15T15:30:51;4.30;99.90
40996;DHT22;26723;57.478;12.066;2023-01-15T15:34:04;4.30;99.90
40996;DHT22;26723;57.478;12.066;2023-01-15T15:37:16;4.40;99.90
40996;DHT22;26723;57.478;12.066;2023-01-15T15:40:29;4.40;99.90
40996;DHT22;26723;57.478;12.066;2023-01-15T15:43:44;4.50;99.90
40996;DHT22;26723;57.478;12.066;2023-01-15T15:47:26;4.50;99.90
40996;DHT22;26723;57.478;12.066;2023-01-15T15:50:53;4.60;99.90
40996;DHT22;26723;57.478;12.066;2023-01-15T15:54:11;4.60;99.90
40996;DHT22;26723;57.478;12.066;2023-01-15T15:57:19;4.70;99.90
40996;DHT22;26723;57.478;12.066;2023-01-15T16:00:32;4.80;99.90
40996;DHT22;26723;57.478;12.066;2023-01-15T16:03:45;4.80;99.90
40996;DHT22;26723;57.478;12.066;2023-01-15T16:06:54;4.90;99.90
40996;DHT22;26723;57.478;12.066;2023-01-15T16:10:06;5.00;99.90
40996;DHT22;26723;57.478;12.066;2023-01-15T16:13:22;5.00;99.90
40996;DHT22;26723;57.478;12.066;2023-01-15T16:16:33;5.10;99.90
40996;DHT22;26723;57.478;12.066;2023-01-15T16:19:42;5.20;99.90
40996;DHT22;26723;57.478;12.066;2023-01-15T16:22:54;5.20;99.90
40996;DHT22;26723;57.478;12.066;2023-01-15T16:26:09;5.30;99.90
40996;DHT22;26723;57.478;12.066;2023-01-15T16:29:21;5.30;99.90
40996;DHT22;26723;57.478;12.066;2023-01-15T16:32:33;5.40;99.90
40996;DHT22;26723;57.478;12.066;2023-01-15T16:35:43;5.40;99.90
40996;DHT22;26723;57.478;12.066;2023-01-15T16:38:53;5.40;99.90
40996;DHT22;26723;57.478;12.066;2023-01-15T16:42:02;5.40;99.90
40996;DHT22;26723;57.478;12.066;2023-01-15T16:45:19;5.50;99.90
40996;DHT22;26723;57.478;12.066;2023-01-15T16:48:31;5.40;99.90
40996;DHT22;26723;57.478;12.066;2023-01-15T16:51:44;5.50;99.90
40996;DHT22;26723;57.478;12.066;2023-01-15T16:54:53;5.50;99.90
40996;DHT22;26723;57.478;12.066;2023-01-15T16:58:21;5.50;99.90
40996;DHT22;26723;57.478;12.066;2023-01-15T17:01:41;5.50;99.90
40996;DHT22;26723;57.478;12.066;2023-01-15T17:04:51;5.50;99.90
40996;DHT22;26723;57.478;12.066;2023-01-15T17:07:59;5.50;99.90
40996;DHT22;26723;57.478;12.066;2023-01-15T17:11:24;5.50;99.90
40996;DHT22;26723;57.478;12.066;2023-01-15T17:14:33;5.50;99.90
40996;DHT22;26723;57.478;12.066;2023-01-15T17:17:42;5.40;99.90
40996;DHT22;26723;57.478;12.066;2023-01-15T17:20:52;5.40;99.90
40996;DHT22;26723;57.478;12.066;2023-01-15T17:24:00;5.40;99.90
40996;DHT22;26723;57.478;12.066;2023-01-15T17:27:10;5.40;99.90
40996;DHT22;26723;57.478;12.066;2023-01-15T17:30:19;5.30;99.90
40996;DHT22;26723;57.478;12.066;2023-01-15T17:33:28;5.30;99.90
40996;DHT22;26723;57.478;12.066;2023-01-15T17:36:38;5.20;99.90
40996;DHT22;26723;57.478;12.066;2023-01-15T17:39:47;5.20;99.90
40996;DHT22;26723;57.478;12.066;2023-01-15T17:42:55;5.20;99.90
40996;DHT22;26723;57.478;12.066;2023-01-15T17:46:05;5.20;99.90
40996;DHT22;26723;57.478;12.066;2023-01-15T17:49:14;5.20;99.90
40996;DHT22;26723;57.478;12.066;2023-01-15T17:52:24;5.20;99.90
40996;DHT22;26723;57.478;12.066;2023-01-15T17:55:32;5.20;99.90
40996;DHT22;26723;57.478;12.066;2023-01-15T17:58:58;5.20;99.90
40996;DHT22;26723;57.478;12.066;2023-01-15T18:02:24;5.10;99.90
40996;DHT22;26723;57.478;12.066;2023-01-15T18:05:50;5.20;99.90
40996;DHT22;26723;57.478;12.066;2023-01-15T18:09:02;5.20;99.90
40996;DHT22;26723;57.478;12.066;2023-01-15T18:12:11;5.20;99.90
40996;DHT22;26723;57.478;12.066;2023-01-15T18:15:20;5.30;99.90
40996;DHT22;26723;57.478;12.066;2023-01-15T18:18:29;5.30;99.90
40996;DHT22;26723;57.478;12.066;2023-01-15T18:21:38;5.30;99.90
40996;DHT22;26723;57.478;12.066;2023-01-15T18:24:48;5.30;99.90
40996;DHT22;26723;57.478;12.066;2023-01-15T18:27:56;5.30;99.90
40996;DHT22;26723;57.478;12.066;2023-01-15T18:31:05;5.20;99.90
40996;DHT22;26723;57.478;12.066;2023-01-15T18:34:14;5.20;99.90
40996;DHT22;26723;57.478;12.066;2023-01-15T18:37:22;5.20;99.90
40996;DHT22;26723;57.478;12.066;2023-01-15T18:40:32;5.30;99.90
40996;DHT22;26723;57.478;12.066;2023-01-15T18:43:41;5.30;99.90
40996;DHT22;26723;57.478;12.066;2023-01-15T18:47:08;5.30;99.90
40996;DHT22;26723;57.478;12.066;2023-01-15T18:50:18;5.30;99.90
40996;DHT22;26723;57.478;12.066;2023-01-15T18:53:27;5.40;99.90
40996;DHT22;26723;57.478;12.066;2023-01-15T18:56:36;5.40;99.90
40996;DHT22;26723;57.478;12.066;2023-01-15T18:59:50;5.40;99.90
40996;DHT22;26723;57.478;12.066;2023-01-15T19:02:58;5.40;99.90
40996;DHT22;26723;57.478;12.066;2023-01-15T19:06:09;5.40;99.90
40996;DHT22;26723;57.478;12.066;2023-01-15T19:09:20;5.50;99.90
40996;DHT22;26723;57.478;12.066;2023-01-15T19:12:33;5.50;99.90
40996;DHT22;26723;57.478;12.066;2023-01-15T19:15:41;5.50;99.90
40996;DHT22;26723;57.478;12.066;2023-01-15T19:19:22;5.50;99.90
40996;DHT22;26723;57.478;12.066;2023-01-15T19:22:30;5.50;99.90
40996;DHT22;26723;57.478;12.066;2023-01-15T19:25:56;5.50;99.90
40996;DHT22;26723;57.478;12.066;2023-01-15T19:29:07;5.50;99.90
40996;DHT22;26723;57.478;12.066;2023-01-15T19:32:15;5.60;99.90
40996;DHT22;26723;57.478;12.066;2023-01-15T19:35:24;5.60;99.90
40996;DHT22;26723;57.478;12.066;2023-01-15T19:38:32;5.60;99.90
40996;DHT22;26723;57.478;12.066;2023-01-15T19:41:42;5.60;99.90
40996;DHT22;26723;57.478;12.066;2023-01-15T19:45:10;5.60;99.90
40996;DHT22;26723;57.478;12.066;2023-01-15T19:48:36;5.60;99.90
40996;DHT22;26723;57.478;12.066;2023-01-15T19:52:02;5.60;99.90
40996;DHT22;26723;57.478;12.066;2023-01-15T19:55:31;5.60;99.90
40996;DHT22;26723;57.478;12.066;2023-01-15T19:58:40;5.60;99.90
40996;DHT22;26723;57.478;12.066;2023-01-15T20:01:50;5.70;99.90
40996;DHT22;26723;57.478;12.066;2023-01-15T20:04:58;5.60;99.90
40996;DHT22;26723;57.478;12.066;2023-01-15T20:08:07;5.60;99.90
40996;DHT22;26723;57.478;12.066;2023-01-15T20:11:18;5.60;99.90
40996;DHT22;26723;57.478;12.066;2023-01-15T20:14:28;5.60;99.90
40996;DHT22;26723;57.478;12.066;2023-01-15T20:17:37;5.70;99.90
40996;DHT22;26723;57.478;12.066;2023-01-15T20:20:45;5.60;99.90
40996;DHT22;26723;57.478;12.066;2023-01-15T20:23:54;5.50;99.90
40996;DHT22;26723;57.478;12.066;2023-01-15T20:27:02;5.50;99.90